createdAt,value
2023-09-26T00:02:05.955Z,14.99
2023-09-26T00:06:53.266Z,15.30
2023-09-26T00:11:43.186Z,15.35
2023-09-26T00:16:30.444Z,15.36
2023-09-26T00:21:17.724Z,15.17
2023-09-26T00:26:05.267Z,15.25
2023-09-26T00:30:55.141Z,14.96
2023-09-26T00:35:42.404Z,15.04
2023-09-26T00:40:29.609Z,15.19
2023-09-26T00:45:17.042Z,15.19
2023-09-26T00:50:08.649Z,15.01
2023-09-26T00:54:56.361Z,14.12
2023-09-26T00:59:43.958Z,15.24
2023-09-26T01:04:31.315Z,15.20
2023-09-26T01:09:21.323Z,14.76
2023-09-26T01:14:08.905Z,15.07
2023-09-26T01:18:56.226Z,15.10
2023-09-26T01:23:46.190Z,14.68
2023-09-26T01:28:37.231Z,15.01
2023-09-26T01:33:24.662Z,14.92
2023-09-26T01:38:12.081Z,14.46
2023-09-26T01:42:59.596Z,14.54
2023-09-26T01:47:50.488Z,14.83
2023-09-26T01:52:37.820Z,14.40
2023-09-26T01:57:25.118Z,14.70
2023-09-26T02:02:13.038Z,14.74
2023-09-26T02:07:03.194Z,14.62
2023-09-26T02:11:50.627Z,14.03
2023-09-26T02:16:38.105Z,14.44
2023-09-26T02:21:55.615Z,14.30
2023-09-26T02:26:45.623Z,14.77
2023-09-26T02:31:32.909Z,14.88
2023-09-26T02:36:20.153Z,14.82
2023-09-26T02:41:07.279Z,14.84
2023-09-26T02:45:57.334Z,14.56
2023-09-26T02:50:44.726Z,14.73
2023-09-26T02:55:32.156Z,14.76
2023-09-26T03:00:20.049Z,14.75
2023-09-26T03:05:10.901Z,14.72
2023-09-26T03:09:58.318Z,14.70
2023-09-26T03:14:45.542Z,14.56
2023-09-26T03:19:33.057Z,14.43
2023-09-26T03:24:23.066Z,14.01
2023-09-26T03:29:10.885Z,14.56
2023-09-26T03:33:58.835Z,14.19
2023-09-26T03:38:47.712Z,14.46
2023-09-26T03:43:37.804Z,13.69
2023-09-26T03:48:28.208Z,13.90
2023-09-26T03:53:15.655Z,14.59
2023-09-26T03:58:03.468Z,14.10
2023-09-26T04:02:53.503Z,14.48
2023-09-26T04:07:40.951Z,14.45
2023-09-26T04:12:28.268Z,14.57
2023-09-26T04:17:15.377Z,14.32
2023-09-26T04:22:05.190Z,14.26
2023-09-26T04:26:52.534Z,14.46
2023-09-26T04:31:40.045Z,14.32
2023-09-26T04:36:27.377Z,14.12
2023-09-26T04:41:17.276Z,14.36
2023-09-26T04:46:20.322Z,14.44
2023-09-26T04:51:08.830Z,14.11
2023-09-26T04:55:55.969Z,14.17
2023-09-26T05:00:45.699Z,14.32
2023-09-26T05:05:32.916Z,14.34
2023-09-26T05:10:20.547Z,14.09
2023-09-26T05:15:10.123Z,14.25
2023-09-26T05:20:00.091Z,14.14
2023-09-26T05:24:47.322Z,14.15
2023-09-26T05:29:34.534Z,14.19
2023-09-26T05:34:21.723Z,13.75
2023-09-26T05:39:11.587Z,14.26
2023-09-26T05:43:58.872Z,13.87
2023-09-26T05:48:46.021Z,13.84
2023-09-26T05:53:33.326Z,14.07
2023-09-26T05:58:23.234Z,14.24
2023-09-26T06:03:10.558Z,14.27
2023-09-26T06:07:57.937Z,14.07
2023-09-26T06:12:45.090Z,14.09
2023-09-26T06:17:38.392Z,13.67
2023-09-26T06:22:25.546Z,14.39
2023-09-26T06:27:12.935Z,14.42
2023-09-26T06:36:51.142Z,14.42
2023-09-26T06:41:38.537Z,14.19
2023-09-26T06:46:26.012Z,14.49
2023-09-26T06:51:13.245Z,14.62
2023-09-26T06:56:05.367Z,13.88
2023-09-26T07:00:52.700Z,13.72
2023-09-26T07:05:39.951Z,14.77
2023-09-26T07:10:27.447Z,14.25
2023-09-26T07:15:17.923Z,14.22
2023-09-26T07:20:06.110Z,14.75
2023-09-26T07:24:53.524Z,14.81
2023-09-26T07:29:40.881Z,14.71
2023-09-26T07:34:31.148Z,14.47
2023-09-26T07:39:18.350Z,15.24
2023-09-26T07:44:06.088Z,15.37
2023-09-26T07:48:53.318Z,14.81
2023-09-26T07:53:43.385Z,15.57
2023-09-26T07:58:31.016Z,15.60
2023-09-26T08:03:18.208Z,15.83
2023-09-26T08:08:08.165Z,15.90
2023-09-26T08:12:58.440Z,16.01
2023-09-26T08:17:45.644Z,15.65
2023-09-26T08:22:32.942Z,16.30
2023-09-26T08:27:20.180Z,16.39
2023-09-26T08:32:10.940Z,16.44
2023-09-26T08:36:58.461Z,16.39
2023-09-26T08:41:48.081Z,16.71
2023-09-26T08:46:36.412Z,16.89
2023-09-26T08:51:27.094Z,17.26
2023-09-26T08:56:14.365Z,17.41
2023-09-26T09:01:02.216Z,17.57
2023-09-26T09:05:49.460Z,17.71
2023-09-26T09:10:52.256Z,18.04
2023-09-26T09:15:39.684Z,17.89
2023-09-26T09:20:32.335Z,18.04
2023-09-26T09:25:30.162Z,17.98
2023-09-26T09:30:19.985Z,17.92
2023-09-26T09:35:09.747Z,18.03
2023-09-26T09:39:57.079Z,18.15
2023-09-26T09:44:44.571Z,17.87
2023-09-26T09:49:41.525Z,18.38
2023-09-26T09:54:34.353Z,18.65
2023-09-26T09:59:25.899Z,18.76
2023-09-26T10:04:14.668Z,18.68
2023-09-26T10:09:05.529Z,18.87
2023-09-26T10:13:52.968Z,19.24
2023-09-26T10:18:41.907Z,18.89
2023-09-26T10:23:29.411Z,19.03
2023-09-26T10:28:21.585Z,19.99
2023-09-26T10:33:40.171Z,20.27
2023-09-26T10:38:29.997Z,20.75
2023-09-26T10:48:16.834Z,21.59
2023-09-26T10:53:05.004Z,21.69
2023-09-26T10:57:52.183Z,22.09
2023-09-26T11:02:44.066Z,22.37
2023-09-26T11:07:31.481Z,22.34
2023-09-26T11:12:18.928Z,22.46
2023-09-26T11:17:06.107Z,22.65
2023-09-26T11:21:56.460Z,22.74
2023-09-26T11:26:44.950Z,22.60
2023-09-26T11:31:32.395Z,22.68
2023-09-26T11:36:19.765Z,22.25
2023-09-26T11:41:11.450Z,22.43
2023-09-26T11:46:02.419Z,22.07
2023-09-26T11:50:50.289Z,22.15
2023-09-26T11:55:37.907Z,22.18
2023-09-26T12:00:28.321Z,21.91
2023-09-26T12:05:20.394Z,21.99
2023-09-26T12:10:09.505Z,21.93
2023-09-26T12:15:16.978Z,22.01
2023-09-26T12:20:08.948Z,22.09
2023-09-26T12:24:57.707Z,22.08
2023-09-26T12:29:44.838Z,21.45
2023-09-26T12:34:32.075Z,22.08
2023-09-26T12:39:21.856Z,21.98
2023-09-26T12:44:11.399Z,21.98
2023-09-26T12:48:58.980Z,22.17
2023-09-26T12:53:46.260Z,22.01
2023-09-26T12:58:38.364Z,22.13
2023-09-26T13:03:25.658Z,21.83
2023-09-26T13:08:13.012Z,22.18
2023-09-26T13:13:00.286Z,22.12
2023-09-26T13:17:50.223Z,22.03
2023-09-26T13:22:37.888Z,22.30
2023-09-26T13:27:26.220Z,22.24
2023-09-26T13:32:13.905Z,22.26
2023-09-26T13:37:04.220Z,22.15
2023-09-26T13:41:51.478Z,22.60
2023-09-26T13:46:38.785Z,22.55
2023-09-26T13:51:26.030Z,22.59
2023-09-26T13:56:16.573Z,22.21
2023-09-26T14:01:03.896Z,22.70
2023-09-26T14:05:51.398Z,22.44
2023-09-26T14:10:38.736Z,22.38
2023-09-26T14:15:28.490Z,22.36
2023-09-26T14:20:16.005Z,22.01
2023-09-26T14:25:03.278Z,22.13
2023-09-26T14:29:50.394Z,22.43
2023-09-26T14:34:40.230Z,22.07
2023-09-26T14:39:27.567Z,22.22
2023-09-26T14:44:17.492Z,22.35
2023-09-26T14:49:06.882Z,22.07
2023-09-26T14:53:56.736Z,22.27
2023-09-26T14:58:44.084Z,22.01
2023-09-26T15:03:36.880Z,22.11
2023-09-26T15:08:24.669Z,22.03
2023-09-26T15:13:15.026Z,22.15
2023-09-26T15:18:02.370Z,21.97
2023-09-26T15:22:50.968Z,22.19
2023-09-26T15:27:38.171Z,22.06
2023-09-26T15:32:28.073Z,22.02
2023-09-26T15:37:15.486Z,22.04
2023-09-26T15:42:02.728Z,21.78
2023-09-26T15:46:50.126Z,21.70
2023-09-26T15:51:39.989Z,21.72
2023-09-26T15:56:27.132Z,21.46
2023-09-26T16:01:14.667Z,21.63
2023-09-26T16:06:02.000Z,21.44
2023-09-26T16:10:51.825Z,21.46
2023-09-26T16:15:39.252Z,21.34
2023-09-26T16:20:26.712Z,21.22
2023-09-26T16:25:14.060Z,20.92
2023-09-26T16:30:07.382Z,21.20
2023-09-26T16:34:55.405Z,21.18
2023-09-26T16:39:42.624Z,21.19
2023-09-26T16:44:29.877Z,20.47
2023-09-26T16:49:21.237Z,21.08
2023-09-26T16:54:08.487Z,20.89
2023-09-26T16:58:55.965Z,20.93
2023-09-26T17:03:43.237Z,20.76
2023-09-26T17:08:33.253Z,20.63
2023-09-26T17:13:20.436Z,20.62
2023-09-26T17:18:07.789Z,20.59
2023-09-26T17:22:55.019Z,20.46
2023-09-26T17:27:44.923Z,20.27
2023-09-26T17:32:32.160Z,20.27
2023-09-26T17:37:19.305Z,20.05
2023-09-26T17:42:06.454Z,19.81
2023-09-26T17:46:56.321Z,19.52
2023-09-26T17:51:43.781Z,19.29
2023-09-26T17:56:31.100Z,19.33
2023-09-26T18:01:18.474Z,19.42
2023-09-26T18:06:08.467Z,19.45
2023-09-26T18:10:55.630Z,19.67
2023-09-26T18:15:43.944Z,19.71
2023-09-26T18:20:31.196Z,19.62
2023-09-26T18:25:25.766Z,19.61
2023-09-26T18:30:13.613Z,19.40
2023-09-26T18:35:00.778Z,19.49
2023-09-26T18:39:47.912Z,19.42
2023-09-26T18:45:07.200Z,19.21
2023-09-26T18:49:54.396Z,19.23
2023-09-26T18:54:43.195Z,19.24
2023-09-26T18:59:30.508Z,19.06
2023-09-26T19:04:20.347Z,18.78
2023-09-26T19:09:07.568Z,18.78
2023-09-26T19:13:54.790Z,18.65
2023-09-26T19:18:58.187Z,18.81
2023-09-26T19:23:51.989Z,18.80
2023-09-26T19:28:39.387Z,18.66
2023-09-26T19:33:26.890Z,18.65
2023-09-26T19:38:14.822Z,18.66
2023-09-26T19:43:07.501Z,18.47
2023-09-26T19:47:55.260Z,18.45
2023-09-26T19:52:48.070Z,18.35
2023-09-26T19:57:35.277Z,18.56
2023-09-26T20:02:25.184Z,18.37
2023-09-26T20:07:12.537Z,18.39
2023-09-26T20:11:59.846Z,18.43
2023-09-26T20:16:47.187Z,18.24
2023-09-26T20:21:37.231Z,18.28
2023-09-26T20:26:24.803Z,18.33
2023-09-26T20:31:15.845Z,18.32
2023-09-26T20:36:03.278Z,18.16
2023-09-26T20:41:02.206Z,18.24
2023-09-26T20:45:49.475Z,18.18
2023-09-26T20:50:36.714Z,18.12
2023-09-26T20:55:23.981Z,17.68
2023-09-26T21:00:15.008Z,17.82
2023-09-26T21:05:02.307Z,17.98
2023-09-26T21:09:49.658Z,17.77
2023-09-26T21:14:37.636Z,17.87
2023-09-26T21:19:27.497Z,17.82
2023-09-26T21:24:14.719Z,17.63
2023-09-26T21:29:02.082Z,17.51
2023-09-26T21:33:49.399Z,17.56
2023-09-26T21:38:39.226Z,17.51
2023-09-26T21:43:26.522Z,17.66
2023-09-26T21:48:13.807Z,17.61
2023-09-26T21:53:01.073Z,17.42
2023-09-26T21:57:51.112Z,17.33
2023-09-26T22:02:38.333Z,17.48
2023-09-26T22:07:25.532Z,17.28
2023-09-26T22:12:13.828Z,17.28
2023-09-26T22:17:03.686Z,17.39
2023-09-26T22:21:50.998Z,17.37
2023-09-26T22:26:38.288Z,17.28
2023-09-26T22:31:25.528Z,17.29
2023-09-26T22:36:16.230Z,17.28
2023-09-26T22:41:03.490Z,17.19
2023-09-26T22:45:50.699Z,17.04
2023-09-26T22:50:37.975Z,16.99
2023-09-26T22:55:27.931Z,17.06
2023-09-26T23:00:15.729Z,17.06
2023-09-26T23:05:03.001Z,16.94
2023-09-26T23:09:50.167Z,16.83
2023-09-26T23:14:40.088Z,16.74
2023-09-26T23:19:27.290Z,16.57
2023-09-26T23:24:14.423Z,16.75
2023-09-26T23:29:01.707Z,16.51
2023-09-26T23:33:51.443Z,16.27
2023-09-26T23:38:38.735Z,16.57
2023-09-26T23:43:25.998Z,16.46
2023-09-26T23:48:13.244Z,16.51
2023-09-26T23:53:03.362Z,16.46
2023-09-26T23:57:50.704Z,16.08
